Portada
METAR-TAF:

METAR-TAF

Aeroports :

Aeroport de Jiddah Rei Abdulaziz

Jiddah, Aràbia Saudita

latitud: 21-42N, longitud: 039-11E, altitud: 15 m

Observació

L'informe es va fer fa 26 minuts, a les 07:00 UTC
Vent 6 kt del Oest/Nord-Oest
Temperatura 33°C
Humitat 41%
Pressió 1013 hPa
Visibilitat 10 km o més
sense núvols per sota de 1500 mi sense presència de cumulonimbus.

METAR: OEJN 220700Z 30006KT CAVOK 33/18 Q1013 NOSIG

Hora: 10:26 (07:26 UTC)

Pronòstic

L'informe es va fer fa 2 hores i 26 minuts, a les 05:00 UTC
Pronòstic vàlid del 22 a les 06 UTC al 23 a les 12 UTC
Vent 16 kt del Oest/Nord-Oest
Visibilitat 10 km o més
Núvols disperses a una alçada de 4000 ft
Núvols disperses a una alçada de 10000 ft
Evolucionant progressivament
l' 22 a les 20 UTC al 22 a les 22 UTC
Vent 8 kt del Nord/Nord-Est

TAF: OEJN 220500Z 2206/2312 30016KT 9999 SCT040 SCT100 BECMG 2220/2222 02008KT

Observacions i pronòstics meteorològics de més de 4000 aeroports (METAR i TAF).

Les estacions disponibles són els punts grocs i vermells al mapa.

Posi el ratolí al punt desitjat per veure el nom de l'estació.

Feu clic per veure les observacions i els pronòstics meteorològics.

Per canviar el mapa: feu clic els botons verds amb una creu de color negre per apropar; al botó verd amb un guió per allunyar la imatge; o en les fletxes verdes per a mapes adjacents.


METAR-TAF: